Terminal Aerodrome Forecast
Issued by NWS

Home | Current Version | Previous Version | Text Only | Print | Product List | Glossary On
Versions: 1 2 3 4 5 6 7 8 9 10 11 12
000
FTUS41 KLWX 301700
TAFMTN
TAF
KMTN 301740Z 3018/3118 15007KT P6SM SKC
     FM310100 VRB03KT P6SM BKN070
     FM311500 22007KT P6SM SCT050 BKN070=

USA.gov is the U.S. government's official web portal to all federal, state and local government web resources and services.